sensor_id;sensor_type;location;lat;lon;timestamp;P1;durP1;ratioP1;P2;durP2;ratioP2
64550;SDS011;50945;44.472;-123.352;2022-08-03T00:00:14;2.03;;;1.85;;
64550;SDS011;50945;44.472;-123.352;2022-08-03T00:02:41;4.75;;;1.58;;
64550;SDS011;50945;44.472;-123.352;2022-08-03T00:05:07;1.90;;;1.80;;
64550;SDS011;50945;44.472;-123.352;2022-08-03T00:07:34;3.15;;;1.90;;
64550;SDS011;50945;44.472;-123.352;2022-08-03T00:10:00;2.90;;;1.75;;
64550;SDS011;50945;44.472;-123.352;2022-08-03T00:12:26;1.70;;;1.60;;
64550;SDS011;50945;44.472;-123.352;2022-08-03T00:14:52;2.53;;;1.60;;
64550;SDS011;50945;44.472;-123.352;2022-08-03T00:17:20;2.40;;;1.67;;
64550;SDS011;50945;44.472;-123.352;2022-08-03T00:19:46;3.92;;;1.67;;
64550;SDS011;50945;44.472;-123.352;2022-08-03T00:22:13;2.75;;;1.80;;
64550;SDS011;50945;44.472;-123.352;2022-08-03T00:24:39;2.83;;;1.63;;
64550;SDS011;50945;44.472;-123.352;2022-08-03T00:27:06;2.20;;;2.10;;
64550;SDS011;50945;44.472;-123.352;2022-08-03T00:29:32;4.55;;;2.00;;
64550;SDS011;50945;44.472;-123.352;2022-08-03T00:31:58;2.10;;;1.90;;
64550;SDS011;50945;44.472;-123.352;2022-08-03T00:34:25;7.07;;;1.70;;
64550;SDS011;50945;44.472;-123.352;2022-08-03T00:36:51;2.17;;;1.60;;
64550;SDS011;50945;44.472;-123.352;2022-08-03T00:39:17;1.80;;;1.70;;
64550;SDS011;50945;44.472;-123.352;2022-08-03T00:41:43;2.30;;;1.52;;
64550;SDS011;50945;44.472;-123.352;2022-08-03T00:44:09;2.03;;;1.83;;
64550;SDS011;50945;44.472;-123.352;2022-08-03T00:46:36;3.78;;;1.85;;
64550;SDS011;50945;44.472;-123.352;2022-08-03T00:49:02;3.53;;;1.70;;
64550;SDS011;50945;44.472;-123.352;2022-08-03T00:51:28;2.50;;;1.50;;
64550;SDS011;50945;44.472;-123.352;2022-08-03T00:53:55;1.52;;;1.42;;
64550;SDS011;50945;44.472;-123.352;2022-08-03T00:56:21;1.20;;;1.20;;
64550;SDS011;50945;44.472;-123.352;2022-08-03T00:58:47;1.73;;;1.60;;
64550;SDS011;50945;44.472;-123.352;2022-08-03T01:01:14;1.60;;;1.50;;
64550;SDS011;50945;44.472;-123.352;2022-08-03T01:03:43;2.85;;;1.50;;
64550;SDS011;50945;44.472;-123.352;2022-08-03T01:06:11;1.80;;;1.40;;
64550;SDS011;50945;44.472;-123.352;2022-08-03T01:09:32;1.30;;;1.25;;
64550;SDS011;50945;44.472;-123.352;2022-08-03T01:17:27;2.40;;;1.42;;
64550;SDS011;50945;44.472;-123.352;2022-08-03T01:20:02;2.80;;;1.70;;
64550;SDS011;50945;44.472;-123.352;2022-08-03T01:30:18;1.52;;;1.42;;
64550;SDS011;50945;44.472;-123.352;2022-08-03T01:32:55;2.13;;;1.63;;
64550;SDS011;50945;44.472;-123.352;2022-08-03T01:35:46;2.08;;;1.60;;
64550;SDS011;50945;44.472;-123.352;2022-08-03T01:38:26;1.48;;;1.38;;
64550;SDS011;50945;44.472;-123.352;2022-08-03T01:40:56;2.70;;;1.58;;
64550;SDS011;50945;44.472;-123.352;2022-08-03T01:43:29;2.50;;;2.03;;
64550;SDS011;50945;44.472;-123.352;2022-08-03T01:45:56;2.40;;;1.48;;
64550;SDS011;50945;44.472;-123.352;2022-08-03T01:48:23;3.42;;;1.73;;
64550;SDS011;50945;44.472;-123.352;2022-08-03T01:50:53;2.13;;;1.67;;
64550;SDS011;50945;44.472;-123.352;2022-08-03T01:53:21;5.60;;;2.05;;
64550;SDS011;50945;44.472;-123.352;2022-08-03T01:55:51;1.75;;;1.65;;
64550;SDS011;50945;44.472;-123.352;2022-08-03T01:58:19;1.55;;;1.45;;
64550;SDS011;50945;44.472;-123.352;2022-08-03T02:00:49;3.85;;;2.03;;
64550;SDS011;50945;44.472;-123.352;2022-08-03T02:03:17;1.80;;;1.70;;
64550;SDS011;50945;44.472;-123.352;2022-08-03T02:05:47;2.97;;;2.10;;
64550;SDS011;50945;44.472;-123.352;2022-08-03T02:08:15;2.05;;;1.70;;
64550;SDS011;50945;44.472;-123.352;2022-08-03T02:10:43;1.92;;;1.73;;
64550;SDS011;50945;44.472;-123.352;2022-08-03T02:13:11;2.33;;;2.00;;
64550;SDS011;50945;44.472;-123.352;2022-08-03T02:15:38;1.30;;;1.30;;
64550;SDS011;50945;44.472;-123.352;2022-08-03T02:18:06;2.00;;;1.90;;
64550;SDS011;50945;44.472;-123.352;2022-08-03T02:20:35;1.92;;;1.80;;
64550;SDS011;50945;44.472;-123.352;2022-08-03T02:23:03;3.65;;;2.13;;
64550;SDS011;50945;44.472;-123.352;2022-08-03T02:25:31;2.53;;;2.20;;
64550;SDS011;50945;44.472;-123.352;2022-08-03T02:28:04;6.07;;;2.30;;
64550;SDS011;50945;44.472;-123.352;2022-08-03T02:30:40;3.08;;;2.10;;
64550;SDS011;50945;44.472;-123.352;2022-08-03T02:33:11;2.95;;;2.55;;
64550;SDS011;50945;44.472;-123.352;2022-08-03T02:35:42;4.53;;;1.98;;
64550;SDS011;50945;44.472;-123.352;2022-08-03T02:38:11;2.55;;;2.20;;
64550;SDS011;50945;44.472;-123.352;2022-08-03T02:40:40;5.55;;;2.40;;
64550;SDS011;50945;44.472;-123.352;2022-08-03T02:43:09;4.38;;;2.38;;
64550;SDS011;50945;44.472;-123.352;2022-08-03T02:45:43;3.08;;;2.17;;
64550;SDS011;50945;44.472;-123.352;2022-08-03T02:48:15;3.42;;;2.38;;
64550;SDS011;50945;44.472;-123.352;2022-08-03T02:50:44;4.78;;;2.72;;
64550;SDS011;50945;44.472;-123.352;2022-08-03T02:53:12;4.35;;;2.35;;
64550;SDS011;50945;44.472;-123.352;2022-08-03T02:55:42;3.15;;;2.13;;
64550;SDS011;50945;44.472;-123.352;2022-08-03T02:58:11;3.33;;;2.25;;
64550;SDS011;50945;44.472;-123.352;2022-08-03T03:00:39;6.07;;;2.30;;
64550;SDS011;50945;44.472;-123.352;2022-08-03T03:03:09;3.55;;;2.50;;
64550;SDS011;50945;44.472;-123.352;2022-08-03T03:05:36;3.88;;;2.33;;
64550;SDS011;50945;44.472;-123.352;2022-08-03T03:08:03;2.63;;;2.30;;
64550;SDS011;50945;44.472;-123.352;2022-08-03T03:10:30;2.67;;;2.00;;
64550;SDS011;50945;44.472;-123.352;2022-08-03T03:12:57;2.47;;;2.17;;
64550;SDS011;50945;44.472;-123.352;2022-08-03T03:15:25;4.75;;;2.65;;
64550;SDS011;50945;44.472;-123.352;2022-08-03T03:17:52;4.30;;;2.35;;
64550;SDS011;50945;44.472;-123.352;2022-08-03T03:20:20;5.20;;;2.20;;
64550;SDS011;50945;44.472;-123.352;2022-08-03T03:22:48;5.63;;;2.40;;
64550;SDS011;50945;44.472;-123.352;2022-08-03T03:25:16;4.78;;;2.03;;
64550;SDS011;50945;44.472;-123.352;2022-08-03T03:27:43;4.20;;;2.58;;
64550;SDS011;50945;44.472;-123.352;2022-08-03T03:30:11;6.80;;;3.28;;
64550;SDS011;50945;44.472;-123.352;2022-08-03T03:32:38;5.82;;;2.78;;
64550;SDS011;50945;44.472;-123.352;2022-08-03T03:35:05;5.78;;;2.63;;
64550;SDS011;50945;44.472;-123.352;2022-08-03T03:37:32;2.67;;;2.40;;
64550;SDS011;50945;44.472;-123.352;2022-08-03T03:39:58;5.35;;;2.70;;
64550;SDS011;50945;44.472;-123.352;2022-08-03T03:42:24;2.58;;;2.38;;
64550;SDS011;50945;44.472;-123.352;2022-08-03T03:44:51;5.63;;;3.10;;
64550;SDS011;50945;44.472;-123.352;2022-08-03T03:47:17;5.32;;;2.90;;
64550;SDS011;50945;44.472;-123.352;2022-08-03T03:49:44;5.43;;;2.65;;
64550;SDS011;50945;44.472;-123.352;2022-08-03T03:52:11;5.78;;;2.80;;
64550;SDS011;50945;44.472;-123.352;2022-08-03T03:54:41;5.72;;;2.72;;
64550;SDS011;50945;44.472;-123.352;2022-08-03T03:57:11;4.55;;;2.65;;
64550;SDS011;50945;44.472;-123.352;2022-08-03T03:59:38;6.32;;;2.35;;
64550;SDS011;50945;44.472;-123.352;2022-08-03T04:02:05;5.65;;;2.60;;
64550;SDS011;50945;44.472;-123.352;2022-08-03T04:04:33;4.18;;;2.53;;
64550;SDS011;50945;44.472;-123.352;2022-08-03T04:07:19;3.10;;;2.60;;
64550;SDS011;50945;44.472;-123.352;2022-08-03T04:10:09;4.22;;;2.40;;
64550;SDS011;50945;44.472;-123.352;2022-08-03T04:12:59;4.78;;;2.53;;
64550;SDS011;50945;44.472;-123.352;2022-08-03T04:15:28;5.60;;;2.67;;
64550;SDS011;50945;44.472;-123.352;2022-08-03T04:17:58;5.25;;;2.63;;
64550;SDS011;50945;44.472;-123.352;2022-08-03T04:20:26;4.07;;;2.42;;
64550;SDS011;50945;44.472;-123.352;2022-08-03T04:22:55;3.40;;;2.25;;
64550;SDS011;50945;44.472;-123.352;2022-08-03T04:25:25;3.42;;;2.40;;
64550;SDS011;50945;44.472;-123.352;2022-08-03T04:27:54;4.47;;;2.75;;
64550;SDS011;50945;44.472;-123.352;2022-08-03T04:30:25;3.33;;;2.30;;
64550;SDS011;50945;44.472;-123.352;2022-08-03T04:32:54;6.68;;;2.67;;
64550;SDS011;50945;44.472;-123.352;2022-08-03T04:35:22;4.30;;;2.28;;
64550;SDS011;50945;44.472;-123.352;2022-08-03T04:37:52;4.38;;;2.40;;
64550;SDS011;50945;44.472;-123.352;2022-08-03T04:40:28;4.13;;;2.40;;
64550;SDS011;50945;44.472;-123.352;2022-08-03T04:42:57;3.38;;;2.20;;
64550;SDS011;50945;44.472;-123.352;2022-08-03T04:45:26;3.65;;;2.50;;
64550;SDS011;50945;44.472;-123.352;2022-08-03T04:47:54;3.88;;;2.00;;
64550;SDS011;50945;44.472;-123.352;2022-08-03T04:50:20;5.75;;;2.45;;
64550;SDS011;50945;44.472;-123.352;2022-08-03T04:52:47;5.22;;;2.38;;
64550;SDS011;50945;44.472;-123.352;2022-08-03T04:55:29;3.40;;;2.25;;
64550;SDS011;50945;44.472;-123.352;2022-08-03T04:57:57;3.28;;;2.30;;
64550;SDS011;50945;44.472;-123.352;2022-08-03T05:00:24;3.70;;;2.30;;
64550;SDS011;50945;44.472;-123.352;2022-08-03T05:02:50;2.50;;;2.33;;
64550;SDS011;50945;44.472;-123.352;2022-08-03T05:05:18;2.40;;;2.20;;
64550;SDS011;50945;44.472;-123.352;2022-08-03T05:07:45;2.85;;;2.50;;
64550;SDS011;50945;44.472;-123.352;2022-08-03T05:10:11;3.58;;;2.17;;
64550;SDS011;50945;44.472;-123.352;2022-08-03T05:12:38;3.72;;;2.15;;
64550;SDS011;50945;44.472;-123.352;2022-08-03T05:15:05;6.05;;;2.75;;
64550;SDS011;50945;44.472;-123.352;2022-08-03T05:17:32;4.05;;;2.10;;
64550;SDS011;50945;44.472;-123.352;2022-08-03T05:22:25;4.63;;;2.70;;
64550;SDS011;50945;44.472;-123.352;2022-08-03T05:24:55;4.00;;;2.00;;
64550;SDS011;50945;44.472;-123.352;2022-08-03T05:27:21;4.72;;;2.05;;
64550;SDS011;50945;44.472;-123.352;2022-08-03T05:32:15;3.60;;;2.05;;
64550;SDS011;50945;44.472;-123.352;2022-08-03T05:34:43;4.05;;;1.95;;
64550;SDS011;50945;44.472;-123.352;2022-08-03T05:37:09;2.47;;;1.88;;
64550;SDS011;50945;44.472;-123.352;2022-08-03T05:39:36;2.72;;;2.20;;
64550;SDS011;50945;44.472;-123.352;2022-08-03T05:42:02;6.05;;;2.08;;
64550;SDS011;50945;44.472;-123.352;2022-08-03T05:44:29;5.80;;;2.35;;
64550;SDS011;50945;44.472;-123.352;2022-08-03T05:46:56;2.80;;;2.20;;
64550;SDS011;50945;44.472;-123.352;2022-08-03T05:49:22;2.38;;;1.92;;
64550;SDS011;50945;44.472;-123.352;2022-08-03T05:54:15;6.10;;;2.00;;
64550;SDS011;50945;44.472;-123.352;2022-08-03T05:56:41;2.35;;;1.88;;
64550;SDS011;50945;44.472;-123.352;2022-08-03T06:01:33;2.97;;;1.92;;
64550;SDS011;50945;44.472;-123.352;2022-08-03T06:06:25;3.50;;;2.00;;
64550;SDS011;50945;44.472;-123.352;2022-08-03T06:11:18;5.57;;;2.70;;
64550;SDS011;50945;44.472;-123.352;2022-08-03T06:16:10;1.63;;;1.48;;
64550;SDS011;50945;44.472;-123.352;2022-08-03T06:18:38;2.10;;;1.88;;
64550;SDS011;50945;44.472;-123.352;2022-08-03T06:21:04;2.47;;;1.95;;
64550;SDS011;50945;44.472;-123.352;2022-08-03T06:25:56;4.30;;;2.00;;
64550;SDS011;50945;44.472;-123.352;2022-08-03T06:28:23;2.90;;;1.95;;
64550;SDS011;50945;44.472;-123.352;2022-08-03T06:30:49;3.63;;;2.00;;
64550;SDS011;50945;44.472;-123.352;2022-08-03T06:33:15;3.97;;;2.30;;
64550;SDS011;50945;44.472;-123.352;2022-08-03T06:35:42;2.28;;;2.08;;
64550;SDS011;50945;44.472;-123.352;2022-08-03T06:38:08;4.47;;;2.78;;
64550;SDS011;50945;44.472;-123.352;2022-08-03T06:43:04;3.22;;;2.17;;
64550;SDS011;50945;44.472;-123.352;2022-08-03T06:45:32;3.85;;;2.10;;
64550;SDS011;50945;44.472;-123.352;2022-08-03T06:48:03;4.15;;;2.70;;
64550;SDS011;50945;44.472;-123.352;2022-08-03T06:50:31;3.33;;;2.20;;
64550;SDS011;50945;44.472;-123.352;2022-08-03T06:52:59;2.28;;;2.00;;
64550;SDS011;50945;44.472;-123.352;2022-08-03T06:55:26;2.70;;;2.35;;
64550;SDS011;50945;44.472;-123.352;2022-08-03T06:57:52;7.15;;;2.45;;
64550;SDS011;50945;44.472;-123.352;2022-08-03T07:00:19;4.88;;;2.25;;
64550;SDS011;50945;44.472;-123.352;2022-08-03T07:02:46;4.18;;;2.30;;
64550;SDS011;50945;44.472;-123.352;2022-08-03T07:05:13;5.68;;;2.90;;
64550;SDS011;50945;44.472;-123.352;2022-08-03T07:07:39;3.97;;;2.22;;
64550;SDS011;50945;44.472;-123.352;2022-08-03T07:10:06;3.22;;;2.40;;
64550;SDS011;50945;44.472;-123.352;2022-08-03T07:12:33;3.63;;;2.13;;
64550;SDS011;50945;44.472;-123.352;2022-08-03T07:15:00;3.83;;;2.28;;
64550;SDS011;50945;44.472;-123.352;2022-08-03T07:17:28;3.55;;;2.30;;
64550;SDS011;50945;44.472;-123.352;2022-08-03T07:19:55;7.47;;;3.00;;
64550;SDS011;50945;44.472;-123.352;2022-08-03T07:22:22;7.25;;;2.85;;
64550;SDS011;50945;44.472;-123.352;2022-08-03T07:24:49;6.05;;;3.33;;
64550;SDS011;50945;44.472;-123.352;2022-08-03T07:27:15;5.07;;;2.42;;
64550;SDS011;50945;44.472;-123.352;2022-08-03T07:29:41;3.22;;;2.22;;
64550;SDS011;50945;44.472;-123.352;2022-08-03T07:34:33;3.03;;;2.13;;
64550;SDS011;50945;44.472;-123.352;2022-08-03T07:37:00;3.35;;;2.47;;
64550;SDS011;50945;44.472;-123.352;2022-08-03T07:39:26;4.47;;;2.65;;
64550;SDS011;50945;44.472;-123.352;2022-08-03T07:41:54;6.30;;;2.30;;
64550;SDS011;50945;44.472;-123.352;2022-08-03T07:44:20;4.05;;;2.13;;
64550;SDS011;50945;44.472;-123.352;2022-08-03T07:49:12;7.20;;;2.63;;
64550;SDS011;50945;44.472;-123.352;2022-08-03T07:51:39;3.70;;;2.40;;
64550;SDS011;50945;44.472;-123.352;2022-08-03T07:54:05;2.90;;;2.20;;
64550;SDS011;50945;44.472;-123.352;2022-08-03T07:56:32;4.50;;;2.83;;
64550;SDS011;50945;44.472;-123.352;2022-08-03T07:58:58;3.60;;;2.42;;
64550;SDS011;50945;44.472;-123.352;2022-08-03T08:03:50;5.13;;;2.65;;
64550;SDS011;50945;44.472;-123.352;2022-08-03T08:06:17;5.20;;;2.58;;
64550;SDS011;50945;44.472;-123.352;2022-08-03T08:08:43;5.32;;;2.50;;
64550;SDS011;50945;44.472;-123.352;2022-08-03T08:13:36;2.30;;;2.10;;
64550;SDS011;50945;44.472;-123.352;2022-08-03T08:16:03;4.47;;;2.40;;
64550;SDS011;50945;44.472;-123.352;2022-08-03T08:18:30;4.80;;;2.80;;
64550;SDS011;50945;44.472;-123.352;2022-08-03T08:23:23;5.43;;;2.45;;
64550;SDS011;50945;44.472;-123.352;2022-08-03T08:25:50;3.42;;;2.20;;
64550;SDS011;50945;44.472;-123.352;2022-08-03T08:28:18;4.80;;;2.33;;
64550;SDS011;50945;44.472;-123.352;2022-08-03T08:30:46;3.03;;;2.28;;
64550;SDS011;50945;44.472;-123.352;2022-08-03T08:33:12;3.80;;;2.65;;
64550;SDS011;50945;44.472;-123.352;2022-08-03T08:38:04;4.05;;;2.22;;
64550;SDS011;50945;44.472;-123.352;2022-08-03T08:40:31;4.15;;;2.42;;
64550;SDS011;50945;44.472;-123.352;2022-08-03T08:42:57;4.35;;;2.80;;
64550;SDS011;50945;44.472;-123.352;2022-08-03T08:45:24;3.85;;;2.50;;
64550;SDS011;50945;44.472;-123.352;2022-08-03T08:47:51;3.63;;;2.50;;
64550;SDS011;50945;44.472;-123.352;2022-08-03T08:50:20;3.42;;;2.30;;
64550;SDS011;50945;44.472;-123.352;2022-08-03T08:52:47;6.28;;;2.50;;
64550;SDS011;50945;44.472;-123.352;2022-08-03T08:55:18;5.38;;;3.10;;
64550;SDS011;50945;44.472;-123.352;2022-08-03T08:57:47;3.28;;;2.50;;
64550;SDS011;50945;44.472;-123.352;2022-08-03T09:00:16;4.43;;;2.45;;
64550;SDS011;50945;44.472;-123.352;2022-08-03T09:02:43;3.58;;;2.22;;
64550;SDS011;50945;44.472;-123.352;2022-08-03T09:05:11;4.32;;;2.65;;
64550;SDS011;50945;44.472;-123.352;2022-08-03T09:07:39;2.25;;;2.05;;
64550;SDS011;50945;44.472;-123.352;2022-08-03T09:10:08;5.25;;;2.28;;
64550;SDS011;50945;44.472;-123.352;2022-08-03T09:12:40;6.43;;;3.03;;
64550;SDS011;50945;44.472;-123.352;2022-08-03T09:18:02;3.35;;;2.10;;
64550;SDS011;50945;44.472;-123.352;2022-08-03T09:20:32;3.25;;;2.20;;
64550;SDS011;50945;44.472;-123.352;2022-08-03T09:23:02;3.92;;;2.60;;
64550;SDS011;50945;44.472;-123.352;2022-08-03T09:30:34;3.25;;;2.20;;
64550;SDS011;50945;44.472;-123.352;2022-08-03T09:33:02;4.18;;;2.30;;
64550;SDS011;50945;44.472;-123.352;2022-08-03T09:38:12;3.13;;;2.28;;
64550;SDS011;50945;44.472;-123.352;2022-08-03T09:43:09;7.50;;;2.22;;
64550;SDS011;50945;44.472;-123.352;2022-08-03T09:45:37;4.35;;;2.70;;
64550;SDS011;50945;44.472;-123.352;2022-08-03T09:48:24;5.95;;;2.65;;
64550;SDS011;50945;44.472;-123.352;2022-08-03T09:50:52;6.43;;;2.30;;
64550;SDS011;50945;44.472;-123.352;2022-08-03T09:53:21;5.75;;;2.47;;
64550;SDS011;50945;44.472;-123.352;2022-08-03T09:55:56;5.38;;;2.40;;
64550;SDS011;50945;44.472;-123.352;2022-08-03T09:58:24;5.47;;;2.60;;
64550;SDS011;50945;44.472;-123.352;2022-08-03T10:03:22;3.17;;;2.40;;
64550;SDS011;50945;44.472;-123.352;2022-08-03T10:05:50;2.70;;;1.98;;
64550;SDS011;50945;44.472;-123.352;2022-08-03T10:08:17;3.60;;;2.25;;
64550;SDS011;50945;44.472;-123.352;2022-08-03T10:10:46;4.10;;;2.60;;
64550;SDS011;50945;44.472;-123.352;2022-08-03T10:13:15;4.35;;;2.72;;
64550;SDS011;50945;44.472;-123.352;2022-08-03T10:15:43;3.03;;;2.55;;
64550;SDS011;50945;44.472;-123.352;2022-08-03T10:18:09;5.28;;;2.90;;
64550;SDS011;50945;44.472;-123.352;2022-08-03T10:23:05;3.92;;;2.33;;
64550;SDS011;50945;44.472;-123.352;2022-08-03T10:25:36;4.00;;;2.47;;
64550;SDS011;50945;44.472;-123.352;2022-08-03T10:28:03;4.30;;;2.53;;
64550;SDS011;50945;44.472;-123.352;2022-08-03T10:30:31;5.93;;;2.67;;
64550;SDS011;50945;44.472;-123.352;2022-08-03T10:33:02;3.70;;;2.40;;
64550;SDS011;50945;44.472;-123.352;2022-08-03T10:35:34;7.43;;;2.63;;
64550;SDS011;50945;44.472;-123.352;2022-08-03T10:38:07;3.45;;;2.42;;
64550;SDS011;50945;44.472;-123.352;2022-08-03T10:40:42;4.10;;;2.88;;
64550;SDS011;50945;44.472;-123.352;2022-08-03T10:43:10;3.97;;;2.75;;
64550;SDS011;50945;44.472;-123.352;2022-08-03T10:45:43;2.95;;;2.20;;
64550;SDS011;50945;44.472;-123.352;2022-08-03T10:48:10;3.58;;;2.40;;
64550;SDS011;50945;44.472;-123.352;2022-08-03T10:50:37;5.50;;;2.30;;
64550;SDS011;50945;44.472;-123.352;2022-08-03T10:53:07;4.57;;;2.80;;
64550;SDS011;50945;44.472;-123.352;2022-08-03T10:55:34;5.65;;;2.70;;
64550;SDS011;50945;44.472;-123.352;2022-08-03T11:01:09;3.65;;;1.88;;
64550;SDS011;50945;44.472;-123.352;2022-08-03T11:06:18;3.58;;;1.88;;
64550;SDS011;50945;44.472;-123.352;2022-08-03T11:08:48;2.13;;;1.92;;
64550;SDS011;50945;44.472;-123.352;2022-08-03T11:16:23;2.55;;;2.13;;
64550;SDS011;50945;44.472;-123.352;2022-08-03T11:18:59;2.58;;;2.38;;
64550;SDS011;50945;44.472;-123.352;2022-08-03T11:27:16;3.20;;;2.17;;
64550;SDS011;50945;44.472;-123.352;2022-08-03T11:35:29;7.53;;;2.50;;
64550;SDS011;50945;44.472;-123.352;2022-08-03T11:40:43;4.50;;;2.42;;
64550;SDS011;50945;44.472;-123.352;2022-08-03T11:45:59;5.38;;;2.30;;
64550;SDS011;50945;44.472;-123.352;2022-08-03T11:48:37;4.05;;;2.35;;
64550;SDS011;50945;44.472;-123.352;2022-08-03T11:51:17;4.93;;;2.67;;
64550;SDS011;50945;44.472;-123.352;2022-08-03T11:53:58;7.15;;;2.85;;
64550;SDS011;50945;44.472;-123.352;2022-08-03T11:56:42;5.05;;;3.08;;
64550;SDS011;50945;44.472;-123.352;2022-08-03T11:59:13;5.90;;;2.42;;
64550;SDS011;50945;44.472;-123.352;2022-08-03T12:01:39;3.25;;;2.40;;
64550;SDS011;50945;44.472;-123.352;2022-08-03T12:04:06;4.43;;;2.85;;
64550;SDS011;50945;44.472;-123.352;2022-08-03T12:06:32;4.35;;;2.80;;
64550;SDS011;50945;44.472;-123.352;2022-08-03T12:09:17;4.25;;;2.92;;
64550;SDS011;50945;44.472;-123.352;2022-08-03T12:11:46;3.42;;;2.83;;
64550;SDS011;50945;44.472;-123.352;2022-08-03T12:14:19;5.57;;;2.80;;
64550;SDS011;50945;44.472;-123.352;2022-08-03T12:16:46;7.90;;;3.00;;
64550;SDS011;50945;44.472;-123.352;2022-08-03T12:19:13;4.68;;;2.70;;
64550;SDS011;50945;44.472;-123.352;2022-08-03T12:21:49;5.40;;;3.15;;
64550;SDS011;50945;44.472;-123.352;2022-08-03T12:24:15;5.05;;;2.42;;
64550;SDS011;50945;44.472;-123.352;2022-08-03T12:29:19;6.07;;;2.42;;
64550;SDS011;50945;44.472;-123.352;2022-08-03T12:31:46;5.70;;;2.78;;
64550;SDS011;50945;44.472;-123.352;2022-08-03T12:34:13;7.00;;;2.63;;
64550;SDS011;50945;44.472;-123.352;2022-08-03T12:36:53;4.85;;;2.72;;
64550;SDS011;50945;44.472;-123.352;2022-08-03T12:39:24;5.65;;;2.80;;
64550;SDS011;50945;44.472;-123.352;2022-08-03T12:41:54;5.25;;;2.97;;
64550;SDS011;50945;44.472;-123.352;2022-08-03T12:44:39;4.35;;;2.83;;
64550;SDS011;50945;44.472;-123.352;2022-08-03T12:47:05;4.90;;;2.95;;
64550;SDS011;50945;44.472;-123.352;2022-08-03T12:52:29;5.28;;;2.80;;
64550;SDS011;50945;44.472;-123.352;2022-08-03T12:55:08;6.43;;;2.70;;
64550;SDS011;50945;44.472;-123.352;2022-08-03T12:57:45;5.78;;;2.65;;
64550;SDS011;50945;44.472;-123.352;2022-08-03T13:00:15;6.82;;;2.80;;
64550;SDS011;50945;44.472;-123.352;2022-08-03T13:02:43;5.75;;;2.80;;
64550;SDS011;50945;44.472;-123.352;2022-08-03T13:05:10;6.68;;;3.35;;
64550;SDS011;50945;44.472;-123.352;2022-08-03T13:07:44;4.68;;;2.90;;
64550;SDS011;50945;44.472;-123.352;2022-08-03T13:10:11;4.60;;;2.70;;
64550;SDS011;50945;44.472;-123.352;2022-08-03T13:12:53;2.90;;;2.60;;
64550;SDS011;50945;44.472;-123.352;2022-08-03T13:15:22;6.00;;;2.47;;
64550;SDS011;50945;44.472;-123.352;2022-08-03T13:17:51;5.60;;;3.05;;
64550;SDS011;50945;44.472;-123.352;2022-08-03T13:20:17;8.00;;;3.85;;
64550;SDS011;50945;44.472;-123.352;2022-08-03T13:22:45;4.70;;;2.90;;
64550;SDS011;50945;44.472;-123.352;2022-08-03T13:25:12;4.22;;;3.47;;
64550;SDS011;50945;44.472;-123.352;2022-08-03T13:27:39;8.50;;;3.47;;
64550;SDS011;50945;44.472;-123.352;2022-08-03T13:30:05;5.03;;;3.08;;
64550;SDS011;50945;44.472;-123.352;2022-08-03T13:32:33;6.88;;;2.95;;
64550;SDS011;50945;44.472;-123.352;2022-08-03T13:35:00;7.30;;;2.90;;
64550;SDS011;50945;44.472;-123.352;2022-08-03T13:37:27;4.03;;;2.83;;
64550;SDS011;50945;44.472;-123.352;2022-08-03T13:39:55;5.53;;;2.63;;
64550;SDS011;50945;44.472;-123.352;2022-08-03T13:42:21;6.50;;;2.70;;
64550;SDS011;50945;44.472;-123.352;2022-08-03T13:44:47;8.68;;;4.15;;
64550;SDS011;50945;44.472;-123.352;2022-08-03T13:47:14;4.28;;;2.78;;
64550;SDS011;50945;44.472;-123.352;2022-08-03T13:49:40;4.45;;;2.75;;
64550;SDS011;50945;44.472;-123.352;2022-08-03T13:52:06;3.97;;;2.90;;
64550;SDS011;50945;44.472;-123.352;2022-08-03T13:54:32;5.82;;;2.60;;
64550;SDS011;50945;44.472;-123.352;2022-08-03T13:56:59;9.63;;;2.97;;
64550;SDS011;50945;44.472;-123.352;2022-08-03T13:59:26;10.02;;;3.30;;
64550;SDS011;50945;44.472;-123.352;2022-08-03T14:01:52;11.80;;;3.22;;
64550;SDS011;50945;44.472;-123.352;2022-08-03T14:04:19;7.90;;;3.05;;
64550;SDS011;50945;44.472;-123.352;2022-08-03T14:06:46;7.00;;;3.10;;
64550;SDS011;50945;44.472;-123.352;2022-08-03T14:09:12;4.32;;;2.78;;
64550;SDS011;50945;44.472;-123.352;2022-08-03T14:11:40;3.83;;;2.75;;
64550;SDS011;50945;44.472;-123.352;2022-08-03T14:14:06;5.25;;;3.00;;
64550;SDS011;50945;44.472;-123.352;2022-08-03T14:16:34;4.13;;;2.78;;
64550;SDS011;50945;44.472;-123.352;2022-08-03T14:19:01;6.70;;;2.92;;
64550;SDS011;50945;44.472;-123.352;2022-08-03T14:21:27;6.70;;;2.78;;
64550;SDS011;50945;44.472;-123.352;2022-08-03T14:23:54;5.22;;;3.08;;
64550;SDS011;50945;44.472;-123.352;2022-08-03T14:26:21;6.32;;;3.10;;
64550;SDS011;50945;44.472;-123.352;2022-08-03T14:31:13;6.47;;;2.83;;
64550;SDS011;50945;44.472;-123.352;2022-08-03T14:33:39;6.38;;;3.13;;
64550;SDS011;50945;44.472;-123.352;2022-08-03T14:36:05;4.20;;;3.03;;
64550;SDS011;50945;44.472;-123.352;2022-08-03T14:38:32;5.60;;;2.83;;
64550;SDS011;50945;44.472;-123.352;2022-08-03T14:40:58;6.88;;;3.30;;
64550;SDS011;50945;44.472;-123.352;2022-08-03T14:43:24;5.35;;;2.60;;
64550;SDS011;50945;44.472;-123.352;2022-08-03T14:45:51;4.03;;;2.65;;
64550;SDS011;50945;44.472;-123.352;2022-08-03T14:50:47;6.80;;;3.25;;
64550;SDS011;50945;44.472;-123.352;2022-08-03T14:53:14;4.35;;;3.13;;
64550;SDS011;50945;44.472;-123.352;2022-08-03T14:55:44;5.72;;;2.75;;
64550;SDS011;50945;44.472;-123.352;2022-08-03T14:58:12;4.13;;;3.20;;
64550;SDS011;50945;44.472;-123.352;2022-08-03T15:00:38;8.57;;;2.88;;
64550;SDS011;50945;44.472;-123.352;2022-08-03T15:03:04;4.85;;;3.22;;
64550;SDS011;50945;44.472;-123.352;2022-08-03T15:05:31;6.70;;;3.00;;
64550;SDS011;50945;44.472;-123.352;2022-08-03T15:07:57;4.78;;;2.78;;
64550;SDS011;50945;44.472;-123.352;2022-08-03T15:10:23;4.45;;;3.03;;
64550;SDS011;50945;44.472;-123.352;2022-08-03T15:12:49;4.82;;;2.38;;
64550;SDS011;50945;44.472;-123.352;2022-08-03T15:15:16;3.45;;;2.72;;
64550;SDS011;50945;44.472;-123.352;2022-08-03T15:17:42;4.93;;;2.88;;
64550;SDS011;50945;44.472;-123.352;2022-08-03T15:20:08;6.32;;;3.15;;
64550;SDS011;50945;44.472;-123.352;2022-08-03T15:22:37;2.83;;;2.50;;
64550;SDS011;50945;44.472;-123.352;2022-08-03T15:25:05;4.32;;;2.42;;
64550;SDS011;50945;44.472;-123.352;2022-08-03T15:27:32;3.33;;;2.63;;
64550;SDS011;50945;44.472;-123.352;2022-08-03T15:29:58;3.17;;;2.58;;
64550;SDS011;50945;44.472;-123.352;2022-08-03T15:32:24;4.95;;;2.50;;
64550;SDS011;50945;44.472;-123.352;2022-08-03T15:34:50;3.45;;;2.40;;
64550;SDS011;50945;44.472;-123.352;2022-08-03T15:37:18;6.57;;;2.95;;
64550;SDS011;50945;44.472;-123.352;2022-08-03T15:39:45;3.63;;;3.20;;
64550;SDS011;50945;44.472;-123.352;2022-08-03T15:42:11;4.97;;;2.47;;
64550;SDS011;50945;44.472;-123.352;2022-08-03T15:44:37;4.50;;;2.72;;
64550;SDS011;50945;44.472;-123.352;2022-08-03T15:49:29;5.25;;;2.80;;
64550;SDS011;50945;44.472;-123.352;2022-08-03T15:51:56;7.20;;;3.63;;
64550;SDS011;50945;44.472;-123.352;2022-08-03T15:54:22;3.33;;;2.63;;
64550;SDS011;50945;44.472;-123.352;2022-08-03T15:56:48;4.03;;;2.80;;
64550;SDS011;50945;44.472;-123.352;2022-08-03T15:59:15;3.38;;;2.70;;
64550;SDS011;50945;44.472;-123.352;2022-08-03T16:01:44;3.15;;;2.88;;
64550;SDS011;50945;44.472;-123.352;2022-08-03T16:04:11;5.20;;;3.15;;